Itapirapua Paulista, Brazil
Current Conditions -  °F | °C
As of 8:00 PM on Thursday 27 Nov 2014 (Local Time) from SBBI Reporting Station
Overcast Overcast  
Wind Chill: 66°   Ceiling: 600
Heat Index: 66°   Visibility: 6mi
Dew Point: 63°   Wind: 10mph
Humidity: 88%   Direction: 120°ESE
Pressure: 30.03"   Gusts: NA
Location:  24.57°S, 49.17°W
Report Text: SBBI 272200Z 12009KT 9999 SCT005 BKN006 OVC009 19/17 Q1017
Loading
Personal Weather Stations






























Interactive Weather Map New forecast layout! Learn more

10-Day Weather Forecast

Advertisements
Track Severe Weather on mobile